sensor_id;sensor_type;location;lat;lon;timestamp;temperature;humidity
75865;HTU21D;64510;46.704;38.274;2023-06-04T00:02:03;18.78;91.90
75865;HTU21D;64510;46.704;38.274;2023-06-04T00:04:29;18.74;91.89
75865;HTU21D;64510;46.704;38.274;2023-06-04T00:06:55;18.74;91.96
75865;HTU21D;64510;46.704;38.274;2023-06-04T00:09:21;18.72;92.27
75865;HTU21D;64510;46.704;38.274;2023-06-04T00:11:47;18.71;92.68
75865;HTU21D;64510;46.704;38.274;2023-06-04T00:14:14;18.68;92.78
75865;HTU21D;64510;46.704;38.274;2023-06-04T00:16:40;18.63;93.10
75865;HTU21D;64510;46.704;38.274;2023-06-04T00:19:07;18.61;93.22
75865;HTU21D;64510;46.704;38.274;2023-06-04T00:21:32;18.55;93.72
75865;HTU21D;64510;46.704;38.274;2023-06-04T00:24:00;18.51;93.86
75865;HTU21D;64510;46.704;38.274;2023-06-04T00:26:26;18.49;93.96
75865;HTU21D;64510;46.704;38.274;2023-06-04T00:28:54;18.44;94.31
75865;HTU21D;64510;46.704;38.274;2023-06-04T00:31:20;18.41;94.54
75865;HTU21D;64510;46.704;38.274;2023-06-04T00:33:47;18.39;94.89
75865;HTU21D;64510;46.704;38.274;2023-06-04T00:36:13;18.35;94.98
75865;HTU21D;64510;46.704;38.274;2023-06-04T00:38:39;18.30;94.88
75865;HTU21D;64510;46.704;38.274;2023-06-04T00:41:05;18.27;94.98
75865;HTU21D;64510;46.704;38.274;2023-06-04T00:43:31;18.26;95.01
75865;HTU21D;64510;46.704;38.274;2023-06-04T00:45:58;18.24;95.01
75865;HTU21D;64510;46.704;38.274;2023-06-04T00:48:25;18.24;94.99
75865;HTU21D;64510;46.704;38.274;2023-06-04T00:50:53;18.20;94.93
75865;HTU21D;64510;46.704;38.274;2023-06-04T00:53:24;18.17;94.85
75865;HTU21D;64510;46.704;38.274;2023-06-04T00:55:51;18.10;94.99
75865;HTU21D;64510;46.704;38.274;2023-06-04T00:58:17;18.04;95.01
75865;HTU21D;64510;46.704;38.274;2023-06-04T01:00:44;17.98;94.93
75865;HTU21D;64510;46.704;38.274;2023-06-04T01:03:14;17.95;95.19
75865;HTU21D;64510;46.704;38.274;2023-06-04T01:06:19;17.90;95.20
75865;HTU21D;64510;46.704;38.274;2023-06-04T01:08:36;17.82;95.41
75865;HTU21D;64510;46.704;38.274;2023-06-04T01:11:02;17.77;95.43
75865;HTU21D;64510;46.704;38.274;2023-06-04T01:13:28;17.75;95.55
75865;HTU21D;64510;46.704;38.274;2023-06-04T01:15:54;17.73;95.78
75865;HTU21D;64510;46.704;38.274;2023-06-04T01:18:27;17.72;96.26
75865;HTU21D;64510;46.704;38.274;2023-06-04T01:21:06;17.67;96.33
75865;HTU21D;64510;46.704;38.274;2023-06-04T01:23:51;17.61;96.58
75865;HTU21D;64510;46.704;38.274;2023-06-04T01:26:31;17.58;96.52
75865;HTU21D;64510;46.704;38.274;2023-06-04T01:28:58;17.56;96.81
75865;HTU21D;64510;46.704;38.274;2023-06-04T01:31:25;17.54;96.78
75865;HTU21D;64510;46.704;38.274;2023-06-04T01:33:55;17.54;96.72
75865;HTU21D;64510;46.704;38.274;2023-06-04T01:36:24;17.55;96.74
75865;HTU21D;64510;46.704;38.274;2023-06-04T01:38:51;17.52;96.76
75865;HTU21D;64510;46.704;38.274;2023-06-04T01:41:17;17.48;96.78
75865;HTU21D;64510;46.704;38.274;2023-06-04T01:43:43;17.44;96.76
75865;HTU21D;64510;46.704;38.274;2023-06-04T01:46:10;17.44;96.72
75865;HTU21D;64510;46.704;38.274;2023-06-04T01:48:36;17.44;96.71
75865;HTU21D;64510;46.704;38.274;2023-06-04T01:51:02;17.50;96.61
75865;HTU21D;64510;46.704;38.274;2023-06-04T01:53:29;17.59;96.26
75865;HTU21D;64510;46.704;38.274;2023-06-04T01:55:55;17.67;96.02
75865;HTU21D;64510;46.704;38.274;2023-06-04T01:58:22;17.77;95.71
75865;HTU21D;64510;46.704;38.274;2023-06-04T02:00:55;17.84;95.33
75865;HTU21D;64510;46.704;38.274;2023-06-04T02:03:25;17.91;95.05
75865;HTU21D;64510;46.704;38.274;2023-06-04T02:05:51;18.00;94.56
75865;HTU21D;64510;46.704;38.274;2023-06-04T02:08:17;18.10;94.23
75865;HTU21D;64510;46.704;38.274;2023-06-04T02:10:48;18.17;93.65
75865;HTU21D;64510;46.704;38.274;2023-06-04T02:13:14;18.19;93.27
75865;HTU21D;64510;46.704;38.274;2023-06-04T02:15:41;18.25;93.01
75865;HTU21D;64510;46.704;38.274;2023-06-04T02:18:17;18.30;92.87
75865;HTU21D;64510;46.704;38.274;2023-06-04T02:20:44;18.44;92.76
75865;HTU21D;64510;46.704;38.274;2023-06-04T02:23:11;18.69;92.37
75865;HTU21D;64510;46.704;38.274;2023-06-04T02:25:37;18.79;91.47
75865;HTU21D;64510;46.704;38.274;2023-06-04T02:28:03;18.94;91.40
75865;HTU21D;64510;46.704;38.274;2023-06-04T02:30:29;19.07;90.82
75865;HTU21D;64510;46.704;38.274;2023-06-04T02:32:55;19.22;90.28
75865;HTU21D;64510;46.704;38.274;2023-06-04T02:35:21;19.24;90.13
75865;HTU21D;64510;46.704;38.274;2023-06-04T02:37:49;19.22;89.68
75865;HTU21D;64510;46.704;38.274;2023-06-04T02:40:15;19.13;89.35
75865;HTU21D;64510;46.704;38.274;2023-06-04T02:42:41;19.03;89.75
75865;HTU21D;64510;46.704;38.274;2023-06-04T02:45:07;19.01;89.54
75865;HTU21D;64510;46.704;38.274;2023-06-04T02:47:33;18.80;89.36
75865;HTU21D;64510;46.704;38.274;2023-06-04T02:49:59;18.69;90.02
75865;HTU21D;64510;46.704;38.274;2023-06-04T02:52:26;18.81;89.83
75865;HTU21D;64510;46.704;38.274;2023-06-04T02:54:52;18.80;89.41
75865;HTU21D;64510;46.704;38.274;2023-06-04T02:57:18;18.82;89.34
75865;HTU21D;64510;46.704;38.274;2023-06-04T02:59:43;18.89;89.09
75865;HTU21D;64510;46.704;38.274;2023-06-04T03:02:09;18.97;88.64
75865;HTU21D;64510;46.704;38.274;2023-06-04T03:04:36;18.91;88.57
75865;HTU21D;64510;46.704;38.274;2023-06-04T03:07:02;18.97;88.59
75865;HTU21D;64510;46.704;38.274;2023-06-04T03:09:30;19.03;88.10
75865;HTU21D;64510;46.704;38.274;2023-06-04T03:12:00;18.92;88.19
75865;HTU21D;64510;46.704;38.274;2023-06-04T03:14:30;18.85;88.12
75865;HTU21D;64510;46.704;38.274;2023-06-04T03:17:01;18.77;88.42
75865;HTU21D;64510;46.704;38.274;2023-06-04T03:19:40;18.71;88.38
75865;HTU21D;64510;46.704;38.274;2023-06-04T03:22:07;18.55;88.56
75865;HTU21D;64510;46.704;38.274;2023-06-04T03:24:35;18.47;88.96
75865;HTU21D;64510;46.704;38.274;2023-06-04T03:27:03;18.42;89.15
75865;HTU21D;64510;46.704;38.274;2023-06-04T03:29:30;18.34;89.17
75865;HTU21D;64510;46.704;38.274;2023-06-04T03:31:58;18.23;89.31
75865;HTU21D;64510;46.704;38.274;2023-06-04T03:34:24;18.12;89.58
75865;HTU21D;64510;46.704;38.274;2023-06-04T03:36:55;18.13;89.93
75865;HTU21D;64510;46.704;38.274;2023-06-04T03:39:21;18.18;89.76
75865;HTU21D;64510;46.704;38.274;2023-06-04T03:41:48;18.18;89.68
75865;HTU21D;64510;46.704;38.274;2023-06-04T03:44:19;18.20;89.71
75865;HTU21D;64510;46.704;38.274;2023-06-04T03:46:45;18.22;89.39
75865;HTU21D;64510;46.704;38.274;2023-06-04T03:49:13;18.19;89.56
75865;HTU21D;64510;46.704;38.274;2023-06-04T03:51:41;18.17;89.43
75865;HTU21D;64510;46.704;38.274;2023-06-04T03:54:08;18.18;89.32
75865;HTU21D;64510;46.704;38.274;2023-06-04T03:56:35;18.10;89.62
75865;HTU21D;64510;46.704;38.274;2023-06-04T03:59:02;18.09;89.69
75865;HTU21D;64510;46.704;38.274;2023-06-04T04:01:28;17.98;89.91
75865;HTU21D;64510;46.704;38.274;2023-06-04T04:03:56;17.98;90.38
75865;HTU21D;64510;46.704;38.274;2023-06-04T04:06:22;17.94;90.24
75865;HTU21D;64510;46.704;38.274;2023-06-04T04:08:48;17.88;90.35
75865;HTU21D;64510;46.704;38.274;2023-06-04T04:11:16;17.84;90.38
75865;HTU21D;64510;46.704;38.274;2023-06-04T04:13:44;17.82;90.45
75865;HTU21D;64510;46.704;38.274;2023-06-04T04:16:11;17.78;90.53
75865;HTU21D;64510;46.704;38.274;2023-06-04T04:18:37;17.75;90.50
75865;HTU21D;64510;46.704;38.274;2023-06-04T04:21:04;17.81;90.58
75865;HTU21D;64510;46.704;38.274;2023-06-04T04:23:30;17.80;90.47
75865;HTU21D;64510;46.704;38.274;2023-06-04T04:25:58;17.80;90.41
75865;HTU21D;64510;46.704;38.274;2023-06-04T04:28:26;17.79;90.36
75865;HTU21D;64510;46.704;38.274;2023-06-04T04:30:56;17.74;90.26
75865;HTU21D;64510;46.704;38.274;2023-06-04T04:33:23;17.76;90.09
75865;HTU21D;64510;46.704;38.274;2023-06-04T04:35:53;17.73;90.02
75865;HTU21D;64510;46.704;38.274;2023-06-04T04:38:21;17.70;90.00
75865;HTU21D;64510;46.704;38.274;2023-06-04T04:40:59;17.72;89.95
75865;HTU21D;64510;46.704;38.274;2023-06-04T04:43:31;17.73;89.93
75865;HTU21D;64510;46.704;38.274;2023-06-04T04:45:59;17.69;89.88
75865;HTU21D;64510;46.704;38.274;2023-06-04T04:48:26;17.72;89.90
75865;HTU21D;64510;46.704;38.274;2023-06-04T04:50:53;17.73;89.70
75865;HTU21D;64510;46.704;38.274;2023-06-04T04:53:20;17.75;89.58
75865;HTU21D;64510;46.704;38.274;2023-06-04T04:55:46;17.77;89.61
75865;HTU21D;64510;46.704;38.274;2023-06-04T04:58:12;17.80;89.39
75865;HTU21D;64510;46.704;38.274;2023-06-04T05:00:39;17.83;89.11
75865;HTU21D;64510;46.704;38.274;2023-06-04T05:03:05;17.88;88.86
75865;HTU21D;64510;46.704;38.274;2023-06-04T05:05:32;17.89;88.95
75865;HTU21D;64510;46.704;38.274;2023-06-04T05:08:01;17.96;88.58
75865;HTU21D;64510;46.704;38.274;2023-06-04T05:10:33;17.96;88.40
75865;HTU21D;64510;46.704;38.274;2023-06-04T05:13:01;18.03;88.55
75865;HTU21D;64510;46.704;38.274;2023-06-04T05:15:35;18.04;87.65
75865;HTU21D;64510;46.704;38.274;2023-06-04T05:18:02;17.95;87.87
75865;HTU21D;64510;46.704;38.274;2023-06-04T05:20:32;17.95;87.87
75865;HTU21D;64510;46.704;38.274;2023-06-04T05:22:59;18.07;87.65
75865;HTU21D;64510;46.704;38.274;2023-06-04T05:25:26;18.13;87.44
75865;HTU21D;64510;46.704;38.274;2023-06-04T05:27:53;18.25;87.32
75865;HTU21D;64510;46.704;38.274;2023-06-04T05:30:20;18.33;87.09
75865;HTU21D;64510;46.704;38.274;2023-06-04T05:32:46;18.42;86.98
75865;HTU21D;64510;46.704;38.274;2023-06-04T05:35:15;18.41;86.30
75865;HTU21D;64510;46.704;38.274;2023-06-04T05:37:42;18.38;86.25
75865;HTU21D;64510;46.704;38.274;2023-06-04T05:40:12;18.33;86.25
75865;HTU21D;64510;46.704;38.274;2023-06-04T05:42:41;18.30;86.20
75865;HTU21D;64510;46.704;38.274;2023-06-04T05:45:07;18.22;86.23
75865;HTU21D;64510;46.704;38.274;2023-06-04T05:47:35;18.23;86.51
75865;HTU21D;64510;46.704;38.274;2023-06-04T05:50:03;18.24;86.53
75865;HTU21D;64510;46.704;38.274;2023-06-04T05:52:31;18.26;86.54
75865;HTU21D;64510;46.704;38.274;2023-06-04T05:54:57;18.34;86.51
75865;HTU21D;64510;46.704;38.274;2023-06-04T05:57:23;18.35;86.01
75865;HTU21D;64510;46.704;38.274;2023-06-04T05:59:49;18.30;85.80
75865;HTU21D;64510;46.704;38.274;2023-06-04T06:02:17;18.28;85.55
75865;HTU21D;64510;46.704;38.274;2023-06-04T06:04:43;18.19;85.73
75865;HTU21D;64510;46.704;38.274;2023-06-04T06:07:09;18.19;85.84
75865;HTU21D;64510;46.704;38.274;2023-06-04T06:09:35;18.28;85.95
75865;HTU21D;64510;46.704;38.274;2023-06-04T06:12:02;18.30;85.77
75865;HTU21D;64510;46.704;38.274;2023-06-04T06:14:29;18.40;85.61
75865;HTU21D;64510;46.704;38.274;2023-06-04T06:16:57;18.51;85.26
75865;HTU21D;64510;46.704;38.274;2023-06-04T06:19:23;18.55;84.39
75865;HTU21D;64510;46.704;38.274;2023-06-04T06:21:49;18.44;84.52
75865;HTU21D;64510;46.704;38.274;2023-06-04T06:24:18;18.39;84.37
75865;HTU21D;64510;46.704;38.274;2023-06-04T06:26:43;18.38;84.25
75865;HTU21D;64510;46.704;38.274;2023-06-04T06:29:11;18.30;84.27
75865;HTU21D;64510;46.704;38.274;2023-06-04T06:31:38;18.34;84.26
75865;HTU21D;64510;46.704;38.274;2023-06-04T06:34:03;18.34;84.27
75865;HTU21D;64510;46.704;38.274;2023-06-04T06:36:29;18.30;84.32
75865;HTU21D;64510;46.704;38.274;2023-06-04T06:38:55;18.34;84.61
75865;HTU21D;64510;46.704;38.274;2023-06-04T06:41:21;18.53;84.37
75865;HTU21D;64510;46.704;38.274;2023-06-04T06:43:47;18.66;84.01
75865;HTU21D;64510;46.704;38.274;2023-06-04T06:46:13;18.66;83.97
75865;HTU21D;64510;46.704;38.274;2023-06-04T06:48:39;18.68;83.72
75865;HTU21D;64510;46.704;38.274;2023-06-04T06:51:06;18.56;83.36
75865;HTU21D;64510;46.704;38.274;2023-06-04T06:53:32;18.43;83.65
75865;HTU21D;64510;46.704;38.274;2023-06-04T06:55:58;18.35;83.94
75865;HTU21D;64510;46.704;38.274;2023-06-04T06:58:24;18.41;83.96
75865;HTU21D;64510;46.704;38.274;2023-06-04T07:00:50;18.56;84.03
75865;HTU21D;64510;46.704;38.274;2023-06-04T07:03:15;18.92;83.42
75865;HTU21D;64510;46.704;38.274;2023-06-04T07:05:42;19.05;82.75
75865;HTU21D;64510;46.704;38.274;2023-06-04T07:08:08;19.21;82.29
75865;HTU21D;64510;46.704;38.274;2023-06-04T07:10:33;19.37;81.91
75865;HTU21D;64510;46.704;38.274;2023-06-04T07:12:59;19.46;81.47
75865;HTU21D;64510;46.704;38.274;2023-06-04T07:15:25;19.73;81.10
75865;HTU21D;64510;46.704;38.274;2023-06-04T07:17:51;19.92;80.26
75865;HTU21D;64510;46.704;38.274;2023-06-04T07:20:17;20.05;79.91
75865;HTU21D;64510;46.704;38.274;2023-06-04T07:22:43;20.13;79.72
75865;HTU21D;64510;46.704;38.274;2023-06-04T07:25:09;20.17;79.56
75865;HTU21D;64510;46.704;38.274;2023-06-04T07:27:35;20.34;78.95
75865;HTU21D;64510;46.704;38.274;2023-06-04T07:30:01;20.32;78.56
75865;HTU21D;64510;46.704;38.274;2023-06-04T07:32:27;20.46;78.27
75865;HTU21D;64510;46.704;38.274;2023-06-04T07:34:53;20.64;78.20
75865;HTU21D;64510;46.704;38.274;2023-06-04T07:37:19;20.66;77.76
75865;HTU21D;64510;46.704;38.274;2023-06-04T07:39:45;20.58;77.47
75865;HTU21D;64510;46.704;38.274;2023-06-04T07:42:11;20.69;77.67
75865;HTU21D;64510;46.704;38.274;2023-06-04T07:44:37;20.73;76.96
75865;HTU21D;64510;46.704;38.274;2023-06-04T07:47:04;20.96;76.98
75865;HTU21D;64510;46.704;38.274;2023-06-04T07:49:30;21.10;76.62
75865;HTU21D;64510;46.704;38.274;2023-06-04T07:51:56;21.23;76.00
75865;HTU21D;64510;46.704;38.274;2023-06-04T07:54:22;21.28;75.36
75865;HTU21D;64510;46.704;38.274;2023-06-04T07:56:48;21.28;75.10
75865;HTU21D;64510;46.704;38.274;2023-06-04T07:59:13;21.01;74.93
75865;HTU21D;64510;46.704;38.274;2023-06-04T08:01:39;20.91;75.46
75865;HTU21D;64510;46.704;38.274;2023-06-04T08:04:05;20.89;75.09
75865;HTU21D;64510;46.704;38.274;2023-06-04T08:06:31;20.94;75.07
75865;HTU21D;64510;46.704;38.274;2023-06-04T08:08:57;21.09;74.76
75865;HTU21D;64510;46.704;38.274;2023-06-04T08:11:23;21.21;74.50
75865;HTU21D;64510;46.704;38.274;2023-06-04T08:13:50;21.27;73.94
75865;HTU21D;64510;46.704;38.274;2023-06-04T08:16:16;21.16;74.25
75865;HTU21D;64510;46.704;38.274;2023-06-04T08:18:42;21.02;74.12
75865;HTU21D;64510;46.704;38.274;2023-06-04T08:21:09;21.09;74.41
75865;HTU21D;64510;46.704;38.274;2023-06-04T08:23:42;21.29;73.93
75865;HTU21D;64510;46.704;38.274;2023-06-04T08:26:08;21.33;73.70
75865;HTU21D;64510;46.704;38.274;2023-06-04T08:28:34;21.31;73.58
75865;HTU21D;64510;46.704;38.274;2023-06-04T08:31:00;21.34;73.63
75865;HTU21D;64510;46.704;38.274;2023-06-04T08:33:26;21.18;73.15
75865;HTU21D;64510;46.704;38.274;2023-06-04T08:35:51;21.01;73.99
75865;HTU21D;64510;46.704;38.274;2023-06-04T08:38:17;20.98;74.18
75865;HTU21D;64510;46.704;38.274;2023-06-04T08:40:43;20.96;74.41
75865;HTU21D;64510;46.704;38.274;2023-06-04T08:43:10;20.96;74.03
75865;HTU21D;64510;46.704;38.274;2023-06-04T08:45:39;20.92;74.17
75865;HTU21D;64510;46.704;38.274;2023-06-04T08:48:09;21.00;74.03
75865;HTU21D;64510;46.704;38.274;2023-06-04T08:50:36;20.90;74.50
75865;HTU21D;64510;46.704;38.274;2023-06-04T08:53:05;21.19;73.80
75865;HTU21D;64510;46.704;38.274;2023-06-04T08:55:32;21.11;73.50
75865;HTU21D;64510;46.704;38.274;2023-06-04T08:57:59;20.79;73.92
75865;HTU21D;64510;46.704;38.274;2023-06-04T09:00:25;20.66;74.28
75865;HTU21D;64510;46.704;38.274;2023-06-04T09:02:52;20.62;74.60
75865;HTU21D;64510;46.704;38.274;2023-06-04T09:05:22;20.69;74.89
75865;HTU21D;64510;46.704;38.274;2023-06-04T09:07:53;20.79;74.49
75865;HTU21D;64510;46.704;38.274;2023-06-04T09:10:22;20.79;74.28
75865;HTU21D;64510;46.704;38.274;2023-06-04T09:12:51;20.72;74.47
75865;HTU21D;64510;46.704;38.274;2023-06-04T09:15:18;20.54;74.92
75865;HTU21D;64510;46.704;38.274;2023-06-04T09:17:44;20.50;75.32
75865;HTU21D;64510;46.704;38.274;2023-06-04T09:20:22;20.48;75.70
75865;HTU21D;64510;46.704;38.274;2023-06-04T09:22:48;20.64;75.12
75865;HTU21D;64510;46.704;38.274;2023-06-04T09:25:25;20.91;74.60
75865;HTU21D;64510;46.704;38.274;2023-06-04T09:27:51;21.16;73.78
75865;HTU21D;64510;46.704;38.274;2023-06-04T09:30:17;21.15;73.83
75865;HTU21D;64510;46.704;38.274;2023-06-04T09:32:44;21.36;73.67
75865;HTU21D;64510;46.704;38.274;2023-06-04T09:35:12;21.47;73.28
75865;HTU21D;64510;46.704;38.274;2023-06-04T09:37:41;21.28;73.18
75865;HTU21D;64510;46.704;38.274;2023-06-04T09:40:09;21.19;72.97
75865;HTU21D;64510;46.704;38.274;2023-06-04T09:42:48;21.21;72.96
75865;HTU21D;64510;46.704;38.274;2023-06-04T09:45:33;21.32;72.87
75865;HTU21D;64510;46.704;38.274;2023-06-04T09:48:01;21.24;73.25
75865;HTU21D;64510;46.704;38.274;2023-06-04T09:50:31;21.17;73.79
75865;HTU21D;64510;46.704;38.274;2023-06-04T09:52:59;21.39;73.69
75865;HTU21D;64510;46.704;38.274;2023-06-04T09:55:25;21.49;72.99
75865;HTU21D;64510;46.704;38.274;2023-06-04T09:57:52;21.51;73.20
75865;HTU21D;64510;46.704;38.274;2023-06-04T10:00:23;21.53;72.97
75865;HTU21D;64510;46.704;38.274;2023-06-04T10:02:53;21.55;73.15
75865;HTU21D;64510;46.704;38.274;2023-06-04T10:05:21;21.60;72.99
75865;HTU21D;64510;46.704;38.274;2023-06-04T10:07:51;21.65;73.04
75865;HTU21D;64510;46.704;38.274;2023-06-04T10:10:25;21.82;72.66
75865;HTU21D;64510;46.704;38.274;2023-06-04T10:13:00;21.85;71.88
75865;HTU21D;64510;46.704;38.274;2023-06-04T10:15:29;21.85;72.33
75865;HTU21D;64510;46.704;38.274;2023-06-04T10:17:58;21.90;72.11
75865;HTU21D;64510;46.704;38.274;2023-06-04T10:20:24;21.94;72.26
